sensor_id;sensor_type;location;lat;lon;timestamp;P1;durP1;ratioP1;P2;durP2;ratioP2
51358;SDS011;37448;51.588;7.248;2023-07-20T00:01:40;3.25;;;2.58;;
51358;SDS011;37448;51.588;7.248;2023-07-20T00:03:44;3.88;;;2.72;;
51358;SDS011;37448;51.588;7.248;2023-07-20T00:05:45;4.15;;;2.80;;
51358;SDS011;37448;51.588;7.248;2023-07-20T00:07:46;3.10;;;2.25;;
51358;SDS011;37448;51.588;7.248;2023-07-20T00:09:46;4.60;;;2.80;;
51358;SDS011;37448;51.588;7.248;2023-07-20T00:11:48;5.50;;;2.90;;
51358;SDS011;37448;51.588;7.248;2023-07-20T00:13:50;4.43;;;2.92;;
51358;SDS011;37448;51.588;7.248;2023-07-20T00:15:51;5.53;;;2.90;;
51358;SDS011;37448;51.588;7.248;2023-07-20T00:17:52;4.35;;;2.17;;
51358;SDS011;37448;51.588;7.248;2023-07-20T00:19:52;3.97;;;2.53;;
51358;SDS011;37448;51.588;7.248;2023-07-20T00:21:53;4.28;;;2.55;;
51358;SDS011;37448;51.588;7.248;2023-07-20T00:23:54;3.70;;;2.60;;
51358;SDS011;37448;51.588;7.248;2023-07-20T00:25:55;3.25;;;2.42;;
51358;SDS011;37448;51.588;7.248;2023-07-20T00:27:55;5.20;;;3.00;;
51358;SDS011;37448;51.588;7.248;2023-07-20T00:29:55;4.43;;;2.25;;
51358;SDS011;37448;51.588;7.248;2023-07-20T00:31:56;3.42;;;2.50;;
51358;SDS011;37448;51.588;7.248;2023-07-20T00:33:57;4.32;;;2.20;;
51358;SDS011;37448;51.588;7.248;2023-07-20T00:35:58;4.28;;;2.97;;
51358;SDS011;37448;51.588;7.248;2023-07-20T00:37:58;4.70;;;2.20;;
51358;SDS011;37448;51.588;7.248;2023-07-20T00:39:58;4.18;;;2.45;;
51358;SDS011;37448;51.588;7.248;2023-07-20T00:41:59;5.53;;;2.30;;
51358;SDS011;37448;51.588;7.248;2023-07-20T00:44:00;3.70;;;2.22;;
51358;SDS011;37448;51.588;7.248;2023-07-20T00:46:01;6.00;;;2.63;;
51358;SDS011;37448;51.588;7.248;2023-07-20T00:48:03;6.43;;;2.08;;
51358;SDS011;37448;51.588;7.248;2023-07-20T00:50:05;10.25;;;2.60;;
51358;SDS011;37448;51.588;7.248;2023-07-20T00:52:06;4.43;;;2.42;;
51358;SDS011;37448;51.588;7.248;2023-07-20T00:54:08;5.38;;;2.08;;
51358;SDS011;37448;51.588;7.248;2023-07-20T00:56:10;4.22;;;2.33;;
51358;SDS011;37448;51.588;7.248;2023-07-20T00:58:11;4.53;;;2.15;;
51358;SDS011;37448;51.588;7.248;2023-07-20T01:00:12;5.65;;;2.17;;
51358;SDS011;37448;51.588;7.248;2023-07-20T01:02:13;4.05;;;2.40;;
51358;SDS011;37448;51.588;7.248;2023-07-20T01:04:14;4.53;;;2.40;;
51358;SDS011;37448;51.588;7.248;2023-07-20T01:13:27;2.72;;;2.30;;
51358;SDS011;37448;51.588;7.248;2023-07-20T01:15:29;6.07;;;3.08;;
51358;SDS011;37448;51.588;7.248;2023-07-20T01:17:30;5.00;;;2.50;;
51358;SDS011;37448;51.588;7.248;2023-07-20T01:19:30;4.05;;;2.75;;
51358;SDS011;37448;51.588;7.248;2023-07-20T01:21:38;4.38;;;2.25;;
51358;SDS011;37448;51.588;7.248;2023-07-20T01:26:02;4.40;;;2.95;;
51358;SDS011;37448;51.588;7.248;2023-07-20T01:32:52;6.05;;;2.83;;
51358;SDS011;37448;51.588;7.248;2023-07-20T01:34:55;4.22;;;2.63;;
51358;SDS011;37448;51.588;7.248;2023-07-20T01:36:59;4.95;;;4.32;;
51358;SDS011;37448;51.588;7.248;2023-07-20T01:39:01;5.28;;;3.83;;
51358;SDS011;37448;51.588;7.248;2023-07-20T01:41:04;4.05;;;3.10;;
51358;SDS011;37448;51.588;7.248;2023-07-20T01:43:05;6.05;;;3.42;;
51358;SDS011;37448;51.588;7.248;2023-07-20T01:45:06;6.00;;;3.70;;
51358;SDS011;37448;51.588;7.248;2023-07-20T01:47:06;5.82;;;3.00;;
51358;SDS011;37448;51.588;7.248;2023-07-20T01:49:07;5.78;;;3.60;;
51358;SDS011;37448;51.588;7.248;2023-07-20T01:51:07;5.10;;;3.28;;
51358;SDS011;37448;51.588;7.248;2023-07-20T01:53:08;4.53;;;3.40;;
51358;SDS011;37448;51.588;7.248;2023-07-20T01:55:08;6.05;;;3.63;;
51358;SDS011;37448;51.588;7.248;2023-07-20T01:57:09;6.05;;;3.28;;
51358;SDS011;37448;51.588;7.248;2023-07-20T01:59:10;7.72;;;3.72;;
51358;SDS011;37448;51.588;7.248;2023-07-20T02:01:10;7.00;;;4.30;;
51358;SDS011;37448;51.588;7.248;2023-07-20T02:03:10;7.43;;;4.50;;
51358;SDS011;37448;51.588;7.248;2023-07-20T02:05:12;7.75;;;3.75;;
51358;SDS011;37448;51.588;7.248;2023-07-20T02:07:12;6.63;;;4.78;;
51358;SDS011;37448;51.588;7.248;2023-07-20T02:09:13;4.72;;;3.60;;
51358;SDS011;37448;51.588;7.248;2023-07-20T02:11:14;6.85;;;4.03;;
51358;SDS011;37448;51.588;7.248;2023-07-20T02:13:15;9.30;;;4.30;;
51358;SDS011;37448;51.588;7.248;2023-07-20T02:15:15;5.75;;;4.00;;
51358;SDS011;37448;51.588;7.248;2023-07-20T02:17:19;6.30;;;4.68;;
51358;SDS011;37448;51.588;7.248;2023-07-20T02:19:20;8.88;;;5.30;;
51358;SDS011;37448;51.588;7.248;2023-07-20T02:21:21;11.70;;;4.72;;
51358;SDS011;37448;51.588;7.248;2023-07-20T02:23:21;6.18;;;4.35;;
51358;SDS011;37448;51.588;7.248;2023-07-20T02:25:22;7.43;;;4.65;;
51358;SDS011;37448;51.588;7.248;2023-07-20T02:27:22;7.03;;;5.63;;
51358;SDS011;37448;51.588;7.248;2023-07-20T02:29:23;7.93;;;5.03;;
51358;SDS011;37448;51.588;7.248;2023-07-20T02:31:23;9.60;;;5.63;;
51358;SDS011;37448;51.588;7.248;2023-07-20T02:33:23;7.85;;;5.20;;
51358;SDS011;37448;51.588;7.248;2023-07-20T02:35:24;8.73;;;5.25;;
51358;SDS011;37448;51.588;7.248;2023-07-20T02:37:24;6.53;;;4.97;;
51358;SDS011;37448;51.588;7.248;2023-07-20T02:39:25;10.20;;;5.88;;
51358;SDS011;37448;51.588;7.248;2023-07-20T02:41:27;7.85;;;5.60;;
51358;SDS011;37448;51.588;7.248;2023-07-20T02:43:27;8.48;;;5.25;;
51358;SDS011;37448;51.588;7.248;2023-07-20T02:45:28;7.25;;;5.60;;
51358;SDS011;37448;51.588;7.248;2023-07-20T02:47:29;9.52;;;6.30;;
51358;SDS011;37448;51.588;7.248;2023-07-20T02:49:29;9.70;;;5.68;;
51358;SDS011;37448;51.588;7.248;2023-07-20T02:51:30;11.32;;;5.78;;
51358;SDS011;37448;51.588;7.248;2023-07-20T02:53:30;8.00;;;5.75;;
51358;SDS011;37448;51.588;7.248;2023-07-20T02:55:31;8.68;;;6.32;;
51358;SDS011;37448;51.588;7.248;2023-07-20T02:57:31;9.73;;;5.28;;
51358;SDS011;37448;51.588;7.248;2023-07-20T02:59:31;12.18;;;6.05;;
51358;SDS011;37448;51.588;7.248;2023-07-20T03:01:32;9.95;;;6.57;;
51358;SDS011;37448;51.588;7.248;2023-07-20T03:03:33;10.23;;;6.88;;
51358;SDS011;37448;51.588;7.248;2023-07-20T03:05:40;12.02;;;7.18;;
51358;SDS011;37448;51.588;7.248;2023-07-20T03:07:41;9.38;;;6.00;;
51358;SDS011;37448;51.588;7.248;2023-07-20T03:09:43;11.88;;;6.85;;
51358;SDS011;37448;51.588;7.248;2023-07-20T03:11:44;10.88;;;6.38;;
51358;SDS011;37448;51.588;7.248;2023-07-20T03:13:45;10.38;;;6.63;;
51358;SDS011;37448;51.588;7.248;2023-07-20T03:15:46;11.82;;;8.15;;
51358;SDS011;37448;51.588;7.248;2023-07-20T03:17:47;10.43;;;7.45;;
51358;SDS011;37448;51.588;7.248;2023-07-20T03:19:47;12.60;;;8.05;;
51358;SDS011;37448;51.588;7.248;2023-07-20T03:21:48;11.02;;;7.43;;
51358;SDS011;37448;51.588;7.248;2023-07-20T03:23:48;12.32;;;7.93;;
51358;SDS011;37448;51.588;7.248;2023-07-20T03:25:49;11.85;;;7.78;;
51358;SDS011;37448;51.588;7.248;2023-07-20T03:27:49;14.18;;;9.00;;
51358;SDS011;37448;51.588;7.248;2023-07-20T03:29:50;13.07;;;8.77;;
51358;SDS011;37448;51.588;7.248;2023-07-20T03:31:50;13.88;;;8.85;;
51358;SDS011;37448;51.588;7.248;2023-07-20T03:33:52;13.40;;;8.00;;
51358;SDS011;37448;51.588;7.248;2023-07-20T03:35:52;12.05;;;8.48;;
51358;SDS011;37448;51.588;7.248;2023-07-20T03:37:53;14.23;;;8.40;;
51358;SDS011;37448;51.588;7.248;2023-07-20T03:39:54;15.30;;;8.73;;
51358;SDS011;37448;51.588;7.248;2023-07-20T03:41:54;17.27;;;10.02;;
51358;SDS011;37448;51.588;7.248;2023-07-20T03:43:55;13.07;;;9.13;;
51358;SDS011;37448;51.588;7.248;2023-07-20T03:45:55;15.73;;;8.75;;
51358;SDS011;37448;51.588;7.248;2023-07-20T03:47:56;14.05;;;9.15;;
51358;SDS011;37448;51.588;7.248;2023-07-20T03:49:57;15.35;;;9.02;;
51358;SDS011;37448;51.588;7.248;2023-07-20T03:51:58;15.40;;;9.25;;
51358;SDS011;37448;51.588;7.248;2023-07-20T03:53:58;14.20;;;8.98;;
51358;SDS011;37448;51.588;7.248;2023-07-20T03:55:59;15.68;;;9.40;;
51358;SDS011;37448;51.588;7.248;2023-07-20T03:58:00;18.50;;;9.80;;
51358;SDS011;37448;51.588;7.248;2023-07-20T04:00:00;15.68;;;10.38;;
51358;SDS011;37448;51.588;7.248;2023-07-20T04:02:00;16.08;;;10.35;;
51358;SDS011;37448;51.588;7.248;2023-07-20T04:04:01;16.77;;;9.70;;
51358;SDS011;37448;51.588;7.248;2023-07-20T04:06:01;17.75;;;10.85;;
51358;SDS011;37448;51.588;7.248;2023-07-20T04:08:02;15.10;;;10.15;;
51358;SDS011;37448;51.588;7.248;2023-07-20T04:10:02;16.27;;;10.85;;
51358;SDS011;37448;51.588;7.248;2023-07-20T04:12:03;17.00;;;10.88;;
51358;SDS011;37448;51.588;7.248;2023-07-20T04:14:04;15.52;;;10.20;;
51358;SDS011;37448;51.588;7.248;2023-07-20T04:16:04;17.92;;;10.70;;
51358;SDS011;37448;51.588;7.248;2023-07-20T04:18:05;20.45;;;10.85;;
51358;SDS011;37448;51.588;7.248;2023-07-20T04:20:05;15.88;;;11.40;;
51358;SDS011;37448;51.588;7.248;2023-07-20T04:22:06;13.70;;;9.40;;
51358;SDS011;37448;51.588;7.248;2023-07-20T04:24:07;13.05;;;8.65;;
51358;SDS011;37448;51.588;7.248;2023-07-20T04:26:07;12.15;;;7.78;;
51358;SDS011;37448;51.588;7.248;2023-07-20T04:28:08;11.40;;;7.75;;
51358;SDS011;37448;51.588;7.248;2023-07-20T04:30:10;9.93;;;7.75;;
51358;SDS011;37448;51.588;7.248;2023-07-20T04:32:12;9.75;;;6.57;;
51358;SDS011;37448;51.588;7.248;2023-07-20T04:34:12;8.35;;;6.75;;
51358;SDS011;37448;51.588;7.248;2023-07-20T04:36:13;8.38;;;6.88;;
51358;SDS011;37448;51.588;7.248;2023-07-20T04:38:16;8.70;;;6.70;;
51358;SDS011;37448;51.588;7.248;2023-07-20T04:40:17;10.30;;;7.90;;
51358;SDS011;37448;51.588;7.248;2023-07-20T04:42:18;9.77;;;7.05;;
51358;SDS011;37448;51.588;7.248;2023-07-20T04:44:20;8.35;;;6.60;;
51358;SDS011;37448;51.588;7.248;2023-07-20T04:46:20;11.93;;;6.97;;
51358;SDS011;37448;51.588;7.248;2023-07-20T04:48:21;12.43;;;7.88;;
51358;SDS011;37448;51.588;7.248;2023-07-20T04:52:25;11.20;;;6.72;;
51358;SDS011;37448;51.588;7.248;2023-07-20T04:54:26;11.55;;;8.18;;
51358;SDS011;37448;51.588;7.248;2023-07-20T04:56:27;13.25;;;7.38;;
51358;SDS011;37448;51.588;7.248;2023-07-20T04:58:29;14.38;;;8.00;;
51358;SDS011;37448;51.588;7.248;2023-07-20T05:00:30;8.73;;;6.93;;
51358;SDS011;37448;51.588;7.248;2023-07-20T05:02:32;8.88;;;6.03;;
51358;SDS011;37448;51.588;7.248;2023-07-20T05:04:32;8.80;;;6.78;;
51358;SDS011;37448;51.588;7.248;2023-07-20T05:06:33;9.57;;;6.80;;
51358;SDS011;37448;51.588;7.248;2023-07-20T05:08:34;12.05;;;7.47;;
51358;SDS011;37448;51.588;7.248;2023-07-20T05:10:35;10.18;;;7.72;;
51358;SDS011;37448;51.588;7.248;2023-07-20T05:12:36;11.63;;;7.40;;
51358;SDS011;37448;51.588;7.248;2023-07-20T05:14:36;6.90;;;5.18;;
51358;SDS011;37448;51.588;7.248;2023-07-20T05:16:36;5.10;;;4.38;;
51358;SDS011;37448;51.588;7.248;2023-07-20T05:18:39;6.45;;;4.10;;
51358;SDS011;37448;51.588;7.248;2023-07-20T05:20:40;5.63;;;4.18;;
51358;SDS011;37448;51.588;7.248;2023-07-20T05:22:40;3.67;;;3.13;;
51358;SDS011;37448;51.588;7.248;2023-07-20T05:24:41;5.28;;;4.38;;
51358;SDS011;37448;51.588;7.248;2023-07-20T05:26:41;5.78;;;3.70;;
51358;SDS011;37448;51.588;7.248;2023-07-20T05:28:41;4.25;;;3.70;;
51358;SDS011;37448;51.588;7.248;2023-07-20T05:30:42;6.18;;;4.18;;
51358;SDS011;37448;51.588;7.248;2023-07-20T05:32:42;4.43;;;3.88;;
51358;SDS011;37448;51.588;7.248;2023-07-20T05:34:45;4.72;;;3.50;;
51358;SDS011;37448;51.588;7.248;2023-07-20T05:36:45;4.35;;;3.92;;
51358;SDS011;37448;51.588;7.248;2023-07-20T05:38:46;4.57;;;3.58;;
51358;SDS011;37448;51.588;7.248;2023-07-20T05:40:46;4.43;;;3.15;;
51358;SDS011;37448;51.588;7.248;2023-07-20T05:42:47;3.35;;;3.05;;
51358;SDS011;37448;51.588;7.248;2023-07-20T05:44:49;5.05;;;3.40;;
51358;SDS011;37448;51.588;7.248;2023-07-20T05:46:52;5.40;;;3.28;;
51358;SDS011;37448;51.588;7.248;2023-07-20T05:48:53;4.78;;;3.72;;
51358;SDS011;37448;51.588;7.248;2023-07-20T05:50:53;5.55;;;4.05;;
51358;SDS011;37448;51.588;7.248;2023-07-20T05:52:54;4.82;;;3.55;;
51358;SDS011;37448;51.588;7.248;2023-07-20T05:54:54;5.15;;;3.70;;
51358;SDS011;37448;51.588;7.248;2023-07-20T05:56:55;4.70;;;4.05;;
51358;SDS011;37448;51.588;7.248;2023-07-20T05:58:55;5.10;;;3.80;;
51358;SDS011;37448;51.588;7.248;2023-07-20T06:00:56;3.58;;;3.20;;
51358;SDS011;37448;51.588;7.248;2023-07-20T06:02:56;5.00;;;3.25;;
51358;SDS011;37448;51.588;7.248;2023-07-20T06:04:56;3.83;;;3.33;;
51358;SDS011;37448;51.588;7.248;2023-07-20T06:06:57;4.63;;;2.97;;
51358;SDS011;37448;51.588;7.248;2023-07-20T06:08:57;3.78;;;3.28;;
51358;SDS011;37448;51.588;7.248;2023-07-20T06:10:58;4.22;;;2.60;;
51358;SDS011;37448;51.588;7.248;2023-07-20T06:12:58;4.50;;;3.38;;
51358;SDS011;37448;51.588;7.248;2023-07-20T06:15:01;3.15;;;2.42;;
51358;SDS011;37448;51.588;7.248;2023-07-20T06:17:03;2.83;;;2.33;;
51358;SDS011;37448;51.588;7.248;2023-07-20T06:19:04;2.92;;;2.42;;
51358;SDS011;37448;51.588;7.248;2023-07-20T06:21:04;3.13;;;2.60;;
51358;SDS011;37448;51.588;7.248;2023-07-20T06:23:05;3.17;;;2.85;;
51358;SDS011;37448;51.588;7.248;2023-07-20T06:25:05;2.65;;;2.45;;
51358;SDS011;37448;51.588;7.248;2023-07-20T06:27:06;4.45;;;3.03;;
51358;SDS011;37448;51.588;7.248;2023-07-20T06:29:06;2.83;;;2.53;;
51358;SDS011;37448;51.588;7.248;2023-07-20T06:31:07;2.70;;;2.17;;
51358;SDS011;37448;51.588;7.248;2023-07-20T06:33:08;3.03;;;2.20;;
51358;SDS011;37448;51.588;7.248;2023-07-20T06:35:08;2.70;;;2.13;;
51358;SDS011;37448;51.588;7.248;2023-07-20T06:37:09;3.13;;;2.63;;
51358;SDS011;37448;51.588;7.248;2023-07-20T06:39:09;3.05;;;2.30;;
51358;SDS011;37448;51.588;7.248;2023-07-20T06:41:09;2.47;;;1.88;;
51358;SDS011;37448;51.588;7.248;2023-07-20T06:43:10;2.72;;;1.65;;
51358;SDS011;37448;51.588;7.248;2023-07-20T06:45:10;4.45;;;2.15;;
51358;SDS011;37448;51.588;7.248;2023-07-20T06:47:11;1.95;;;1.45;;
51358;SDS011;37448;51.588;7.248;2023-07-20T06:49:15;1.40;;;1.10;;
51358;SDS011;37448;51.588;7.248;2023-07-20T06:51:24;2.78;;;1.30;;
51358;SDS011;37448;51.588;7.248;2023-07-20T06:53:25;2.20;;;1.25;;
51358;SDS011;37448;51.588;7.248;2023-07-20T06:55:25;1.05;;;0.95;;
51358;SDS011;37448;51.588;7.248;2023-07-20T06:57:26;1.25;;;0.90;;
51358;SDS011;37448;51.588;7.248;2023-07-20T06:59:26;1.25;;;1.10;;
51358;SDS011;37448;51.588;7.248;2023-07-20T07:01:27;2.72;;;1.48;;
51358;SDS011;37448;51.588;7.248;2023-07-20T07:03:27;2.70;;;0.93;;
51358;SDS011;37448;51.588;7.248;2023-07-20T07:05:28;1.77;;;1.15;;
51358;SDS011;37448;51.588;7.248;2023-07-20T07:07:28;1.38;;;1.27;;
51358;SDS011;37448;51.588;7.248;2023-07-20T07:09:28;1.45;;;1.00;;
51358;SDS011;37448;51.588;7.248;2023-07-20T07:11:29;1.48;;;1.23;;
51358;SDS011;37448;51.588;7.248;2023-07-20T07:13:29;2.80;;;1.40;;
51358;SDS011;37448;51.588;7.248;2023-07-20T07:15:30;1.75;;;1.48;;
51358;SDS011;37448;51.588;7.248;2023-07-20T07:17:31;2.28;;;1.27;;
51358;SDS011;37448;51.588;7.248;2023-07-20T07:19:31;2.38;;;1.25;;
51358;SDS011;37448;51.588;7.248;2023-07-20T07:21:32;2.35;;;1.50;;
51358;SDS011;37448;51.588;7.248;2023-07-20T07:23:32;2.85;;;1.67;;
51358;SDS011;37448;51.588;7.248;2023-07-20T07:25:32;2.53;;;2.33;;
51358;SDS011;37448;51.588;7.248;2023-07-20T07:27:33;4.47;;;1.88;;
51358;SDS011;37448;51.588;7.248;2023-07-20T07:29:33;2.53;;;1.75;;
51358;SDS011;37448;51.588;7.248;2023-07-20T07:31:34;3.10;;;1.77;;
51358;SDS011;37448;51.588;7.248;2023-07-20T07:33:36;2.45;;;2.00;;
51358;SDS011;37448;51.588;7.248;2023-07-20T07:35:36;3.17;;;1.80;;
51358;SDS011;37448;51.588;7.248;2023-07-20T07:37:37;3.53;;;1.60;;
51358;SDS011;37448;51.588;7.248;2023-07-20T07:39:38;2.38;;;1.58;;
51358;SDS011;37448;51.588;7.248;2023-07-20T07:41:39;3.88;;;1.63;;
51358;SDS011;37448;51.588;7.248;2023-07-20T07:43:39;1.92;;;1.30;;
51358;SDS011;37448;51.588;7.248;2023-07-20T07:45:40;2.80;;;1.25;;
51358;SDS011;37448;51.588;7.248;2023-07-20T07:47:40;2.55;;;1.60;;
51358;SDS011;37448;51.588;7.248;2023-07-20T07:49:41;3.55;;;1.70;;
51358;SDS011;37448;51.588;7.248;2023-07-20T07:51:41;1.38;;;1.10;;
51358;SDS011;37448;51.588;7.248;2023-07-20T07:53:42;1.60;;;0.80;;
51358;SDS011;37448;51.588;7.248;2023-07-20T07:55:43;3.08;;;0.90;;
51358;SDS011;37448;51.588;7.248;2023-07-20T07:57:44;5.80;;;1.23;;
51358;SDS011;37448;51.588;7.248;2023-07-20T07:59:45;1.30;;;0.70;;
51358;SDS011;37448;51.588;7.248;2023-07-20T08:01:45;1.70;;;0.77;;
51358;SDS011;37448;51.588;7.248;2023-07-20T08:03:45;1.05;;;0.65;;
51358;SDS011;37448;51.588;7.248;2023-07-20T08:05:47;1.45;;;0.70;;
51358;SDS011;37448;51.588;7.248;2023-07-20T08:07:47;1.50;;;0.50;;
51358;SDS011;37448;51.588;7.248;2023-07-20T08:09:48;1.35;;;0.70;;
51358;SDS011;37448;51.588;7.248;2023-07-20T08:11:48;0.82;;;0.50;;
51358;SDS011;37448;51.588;7.248;2023-07-20T08:13:49;0.60;;;0.55;;
51358;SDS011;37448;51.588;7.248;2023-07-20T08:15:50;1.95;;;0.50;;
51358;SDS011;37448;51.588;7.248;2023-07-20T08:17:54;1.25;;;0.77;;
51358;SDS011;37448;51.588;7.248;2023-07-20T08:19:55;0.70;;;0.60;;
51358;SDS011;37448;51.588;7.248;2023-07-20T08:21:55;1.00;;;0.50;;
51358;SDS011;37448;51.588;7.248;2023-07-20T08:23:55;0.85;;;0.55;;
51358;SDS011;37448;51.588;7.248;2023-07-20T08:25:56;1.80;;;0.60;;
51358;SDS011;37448;51.588;7.248;2023-07-20T08:27:56;0.85;;;0.50;;
51358;SDS011;37448;51.588;7.248;2023-07-20T08:29:57;1.58;;;0.60;;
51358;SDS011;37448;51.588;7.248;2023-07-20T08:31:57;2.50;;;0.73;;
51358;SDS011;37448;51.588;7.248;2023-07-20T08:33:58;1.88;;;0.45;;
51358;SDS011;37448;51.588;7.248;2023-07-20T08:35:58;0.98;;;0.70;;
51358;SDS011;37448;51.588;7.248;2023-07-20T08:37:59;0.60;;;0.50;;
51358;SDS011;37448;51.588;7.248;2023-07-20T08:39:59;0.88;;;0.50;;
51358;SDS011;37448;51.588;7.248;2023-07-20T08:42:00;1.17;;;1.08;;
51358;SDS011;37448;51.588;7.248;2023-07-20T08:44:04;0.82;;;0.40;;
51358;SDS011;37448;51.588;7.248;2023-07-20T08:46:05;1.25;;;0.52;;
51358;SDS011;37448;51.588;7.248;2023-07-20T08:48:07;0.70;;;0.40;;
51358;SDS011;37448;51.588;7.248;2023-07-20T08:50:08;1.20;;;0.50;;
51358;SDS011;37448;51.588;7.248;2023-07-20T08:52:10;0.68;;;0.60;;
51358;SDS011;37448;51.588;7.248;2023-07-20T08:54:12;1.80;;;0.55;;
51358;SDS011;37448;51.588;7.248;2023-07-20T08:56:13;0.68;;;0.68;;
51358;SDS011;37448;51.588;7.248;2023-07-20T08:58:16;1.33;;;0.85;;
51358;SDS011;37448;51.588;7.248;2023-07-20T09:00:17;3.72;;;1.70;;
51358;SDS011;37448;51.588;7.248;2023-07-20T09:02:19;1.25;;;1.10;;
51358;SDS011;37448;51.588;7.248;2023-07-20T09:04:26;1.65;;;1.20;;
51358;SDS011;37448;51.588;7.248;2023-07-20T09:06:26;1.73;;;1.20;;
51358;SDS011;37448;51.588;7.248;2023-07-20T09:08:27;1.30;;;1.20;;
51358;SDS011;37448;51.588;7.248;2023-07-20T09:10:27;1.13;;;0.93;;
51358;SDS011;37448;51.588;7.248;2023-07-20T09:12:28;1.33;;;1.02;;
51358;SDS011;37448;51.588;7.248;2023-07-20T09:14:28;1.30;;;1.20;;
51358;SDS011;37448;51.588;7.248;2023-07-20T09:16:32;1.10;;;0.90;;
51358;SDS011;37448;51.588;7.248;2023-07-20T09:18:32;0.70;;;0.70;;
51358;SDS011;37448;51.588;7.248;2023-07-20T09:20:34;2.90;;;0.73;;
51358;SDS011;37448;51.588;7.248;2023-07-20T09:22:36;1.48;;;0.85;;
51358;SDS011;37448;51.588;7.248;2023-07-20T09:24:40;1.25;;;0.85;;
51358;SDS011;37448;51.588;7.248;2023-07-20T09:26:42;2.20;;;0.80;;
51358;SDS011;37448;51.588;7.248;2023-07-20T09:28:50;2.13;;;0.90;;
51358;SDS011;37448;51.588;7.248;2023-07-20T09:30:54;2.03;;;0.70;;
51358;SDS011;37448;51.588;7.248;2023-07-20T09:32:58;1.42;;;1.00;;
51358;SDS011;37448;51.588;7.248;2023-07-20T09:34:58;1.20;;;1.10;;
51358;SDS011;37448;51.588;7.248;2023-07-20T09:36:59;1.63;;;1.30;;
51358;SDS011;37448;51.588;7.248;2023-07-20T09:39:00;1.42;;;1.17;;
51358;SDS011;37448;51.588;7.248;2023-07-20T09:41:01;1.95;;;1.40;;
51358;SDS011;37448;51.588;7.248;2023-07-20T09:43:01;1.77;;;1.20;;
51358;SDS011;37448;51.588;7.248;2023-07-20T09:45:06;1.75;;;1.10;;
51358;SDS011;37448;51.588;7.248;2023-07-20T09:47:07;3.83;;;1.33;;
51358;SDS011;37448;51.588;7.248;2023-07-20T09:49:08;5.38;;;1.20;;
51358;SDS011;37448;51.588;7.248;2023-07-20T09:51:09;1.00;;;0.90;;
51358;SDS011;37448;51.588;7.248;2023-07-20T09:53:13;1.10;;;0.73;;
51358;SDS011;37448;51.588;7.248;2023-07-20T09:55:15;1.20;;;0.70;;
51358;SDS011;37448;51.588;7.248;2023-07-20T09:57:16;1.33;;;0.75;;
51358;SDS011;37448;51.588;7.248;2023-07-20T09:59:17;2.17;;;0.63;;
51358;SDS011;37448;51.588;7.248;2023-07-20T10:01:20;0.95;;;0.85;;
51358;SDS011;37448;51.588;7.248;2023-07-20T10:03:22;1.50;;;1.10;;
51358;SDS011;37448;51.588;7.248;2023-07-20T10:05:28;1.30;;;0.90;;
51358;SDS011;37448;51.588;7.248;2023-07-20T10:07:36;0.80;;;0.80;;
51358;SDS011;37448;51.588;7.248;2023-07-20T10:09:40;1.02;;;0.93;;
51358;SDS011;37448;51.588;7.248;2023-07-20T10:11:43;1.20;;;1.10;;
51358;SDS011;37448;51.588;7.248;2023-07-20T10:13:51;1.17;;;1.10;;
51358;SDS011;37448;51.588;7.248;2023-07-20T10:15:54;1.30;;;1.20;;
51358;SDS011;37448;51.588;7.248;2023-07-20T10:20:02;2.38;;;1.13;;
51358;SDS011;37448;51.588;7.248;2023-07-20T10:22:10;1.35;;;1.15;;
51358;SDS011;37448;51.588;7.248;2023-07-20T10:26:15;1.30;;;1.20;;
51358;SDS011;37448;51.588;7.248;2023-07-20T10:28:16;1.08;;;0.98;;
51358;SDS011;37448;51.588;7.248;2023-07-20T10:30:17;1.20;;;1.10;;
51358;SDS011;37448;51.588;7.248;2023-07-20T10:32:19;0.93;;;0.90;;
51358;SDS011;37448;51.588;7.248;2023-07-20T10:34:20;2.33;;;1.30;;
51358;SDS011;37448;51.588;7.248;2023-07-20T10:36:26;2.25;;;0.90;;
51358;SDS011;37448;51.588;7.248;2023-07-20T10:40:40;0.90;;;0.90;;
51358;SDS011;37448;51.588;7.248;2023-07-20T10:42:41;1.17;;;1.00;;
51358;SDS011;37448;51.588;7.248;2023-07-20T10:44:41;0.85;;;0.85;;
51358;SDS011;37448;51.588;7.248;2023-07-20T10:46:45;1.38;;;0.90;;
51358;SDS011;37448;51.588;7.248;2023-07-20T10:48:59;1.80;;;1.02;;
51358;SDS011;37448;51.588;7.248;2023-07-20T10:51:11;1.17;;;0.98;;
51358;SDS011;37448;51.588;7.248;2023-07-20T10:53:16;0.52;;;0.47;;
51358;SDS011;37448;51.588;7.248;2023-07-20T10:55:18;0.80;;;0.60;;
51358;SDS011;37448;51.588;7.248;2023-07-20T10:57:23;0.50;;;0.50;;
51358;SDS011;37448;51.588;7.248;2023-07-20T11:01:27;0.98;;;0.57;;
51358;SDS011;37448;51.588;7.248;2023-07-20T11:03:31;0.80;;;0.77;;
51358;SDS011;37448;51.588;7.248;2023-07-20T11:05:38;1.13;;;0.60;;
51358;SDS011;37448;51.588;7.248;2023-07-20T11:07:40;1.45;;;0.80;;
51358;SDS011;37448;51.588;7.248;2023-07-20T11:09:40;0.52;;;0.50;;
51358;SDS011;37448;51.588;7.248;2023-07-20T11:14:03;1.15;;;0.70;;
51358;SDS011;37448;51.588;7.248;2023-07-20T11:16:04;0.70;;;0.60;;
51358;SDS011;37448;51.588;7.248;2023-07-20T11:18:11;0.57;;;0.57;;
51358;SDS011;37448;51.588;7.248;2023-07-20T11:20:12;1.00;;;0.70;;
51358;SDS011;37448;51.588;7.248;2023-07-20T11:22:13;0.82;;;0.82;;
51358;SDS011;37448;51.588;7.248;2023-07-20T11:24:17;0.63;;;0.60;;
51358;SDS011;37448;51.588;7.248;2023-07-20T11:26:18;0.77;;;0.70;;
51358;SDS011;37448;51.588;7.248;2023-07-20T11:28:19;2.45;;;0.68;;
51358;SDS011;37448;51.588;7.248;2023-07-20T11:30:19;1.50;;;0.65;;
51358;SDS011;37448;51.588;7.248;2023-07-20T11:32:20;1.05;;;0.60;;
51358;SDS011;37448;51.588;7.248;2023-07-20T11:34:22;1.40;;;0.80;;
51358;SDS011;37448;51.588;7.248;2023-07-20T11:36:22;0.73;;;0.73;;
51358;SDS011;37448;51.588;7.248;2023-07-20T11:38:23;0.75;;;0.60;;
51358;SDS011;37448;51.588;7.248;2023-07-20T11:40:24;2.13;;;0.70;;
51358;SDS011;37448;51.588;7.248;2023-07-20T11:42:25;0.73;;;0.50;;
51358;SDS011;37448;51.588;7.248;2023-07-20T11:44:26;1.02;;;0.60;;
51358;SDS011;37448;51.588;7.248;2023-07-20T11:46:30;1.67;;;0.45;;
51358;SDS011;37448;51.588;7.248;2023-07-20T11:48:31;1.02;;;0.60;;
51358;SDS011;37448;51.588;7.248;2023-07-20T11:50:31;1.25;;;0.55;;
51358;SDS011;37448;51.588;7.248;2023-07-20T11:52:32;0.85;;;0.50;;
51358;SDS011;37448;51.588;7.248;2023-07-20T11:54:37;1.42;;;0.60;;
51358;SDS011;37448;51.588;7.248;2023-07-20T11:56:41;1.70;;;0.60;;
51358;SDS011;37448;51.588;7.248;2023-07-20T11:58:43;0.60;;;0.60;;
51358;SDS011;37448;51.588;7.248;2023-07-20T12:00:44;1.98;;;0.60;;
51358;SDS011;37448;51.588;7.248;2023-07-20T12:02:46;1.35;;;0.52;;
51358;SDS011;37448;51.588;7.248;2023-07-20T12:04:47;0.52;;;0.40;;
51358;SDS011;37448;51.588;7.248;2023-07-20T12:06:48;1.63;;;0.60;;
51358;SDS011;37448;51.588;7.248;2023-07-20T12:08:48;1.15;;;0.50;;
51358;SDS011;37448;51.588;7.248;2023-07-20T12:10:49;0.38;;;0.30;;
51358;SDS011;37448;51.588;7.248;2023-07-20T12:12:50;0.40;;;0.30;;
51358;SDS011;37448;51.588;7.248;2023-07-20T12:14:50;0.70;;;0.52;;
51358;SDS011;37448;51.588;7.248;2023-07-20T12:16:53;1.08;;;0.47;;
51358;SDS011;37448;51.588;7.248;2023-07-20T12:19:04;0.80;;;0.52;;
51358;SDS011;37448;51.588;7.248;2023-07-20T12:21:06;0.85;;;0.50;;
51358;SDS011;37448;51.588;7.248;2023-07-20T12:23:08;0.50;;;0.50;;
51358;SDS011;37448;51.588;7.248;2023-07-20T12:25:10;0.57;;;0.50;;
51358;SDS011;37448;51.588;7.248;2023-07-20T12:27:12;0.90;;;0.40;;
51358;SDS011;37448;51.588;7.248;2023-07-20T12:29:13;1.10;;;0.40;;
51358;SDS011;37448;51.588;7.248;2023-07-20T12:31:14;0.40;;;0.40;;
51358;SDS011;37448;51.588;7.248;2023-07-20T12:33:14;1.70;;;0.52;;
51358;SDS011;37448;51.588;7.248;2023-07-20T12:35:15;1.00;;;0.50;;
51358;SDS011;37448;51.588;7.248;2023-07-20T12:37:17;1.02;;;0.60;;